Time;durP1;ratioP1;P1;durP2;ratioP2;P2;SDS_P1;SDS_P2;PMS_P1;PMS_P2;Temp;Humidity;BMP_temperature;BMP_pressure;BME280_temperature;BME280_humidity;BME280_pressure;Samples;Min_cycle;Max_cycle;Signal;HPM_P1;HPM_P2
2021/06/16 00:01:57;;;;;;;5.93;1.90;;;;;;;18.82;59.33;100326.81;5016240;28;20092;-79
2021/06/16 00:04:24;;;;;;;8.07;1.95;;;;;;;18.81;59.42;100331.38;5016173;28;20402;-80
2021/06/16 00:06:51;;;;;;;10.45;2.40;;;;;;;18.76;59.57;100333.66;5016438;28;20054;-78
2021/06/16 00:09:18;;;;;;;7.32;2.08;;;;;;;18.77;59.89;100335.38;5015996;28;20377;-81
2021/06/16 00:11:46;;;;;;;7.22;1.90;;;;;;;18.70;59.67;100320.72;5016210;28;20046;-81
2021/06/16 00:14:13;;;;;;;5.75;2.00;;;;;;;18.66;59.62;100306.63;5015290;28;20103;-78
2021/06/16 00:16:42;;;;;;;8.60;2.22;;;;;;;18.67;60.51;100318.28;5016333;28;20104;-80
2021/06/16 00:19:09;;;;;;;11.05;2.97;;;;;;;18.58;60.42;100326.25;5019114;28;20053;-81
2021/06/16 00:21:36;;;;;;;7.93;2.13;;;;;;;18.49;61.05;100316.31;5034968;28;20053;-78
2021/06/16 00:24:03;;;;;;;5.45;2.35;;;;;;;18.39;61.41;100308.19;5036045;28;20053;-80
2021/06/16 00:26:29;;;;;;;11.93;2.15;;;;;;;18.36;61.35;100310.31;5035514;28;20072;-80
2021/06/16 00:28:56;;;;;;;4.68;1.60;;;;;;;18.39;61.73;100315.44;5034575;28;20119;-78
2021/06/16 00:31:25;;;;;;;5.32;1.85;;;;;;;18.36;62.06;100311.16;5035569;28;20079;-80
2021/06/16 00:33:52;;;;;;;8.27;2.63;;;;;;;18.24;62.37;100307.75;5036072;28;20057;-79
2021/06/16 00:36:20;;;;;;;10.38;2.30;;;;;;;18.22;62.93;100309.75;5038076;28;20053;-77
2021/06/16 00:38:46;;;;;;;5.88;2.28;;;;;;;18.19;62.69;100307.31;5045358;28;20422;-78
2021/06/16 00:41:15;;;;;;;8.30;2.58;;;;;;;18.12;63.03;100303.44;5040094;28;20141;-77
2021/06/16 00:43:42;;;;;;;8.15;2.10;;;;;;;17.94;63.88;100290.63;5045518;28;20049;-78
2021/06/16 00:46:09;;;;;;;5.72;1.90;;;;;;;17.99;64.28;100299.16;5040114;28;20053;-79
2021/06/16 00:48:35;;;;;;;9.57;2.00;;;;;;;18.05;64.00;100298.59;5042256;28;20431;-77
2021/06/16 00:51:03;;;;;;;5.75;1.92;;;;;;;17.96;64.32;100302.13;5043247;28;20057;-77
2021/06/16 00:53:30;;;;;;;7.05;1.85;;;;;;;18.04;63.90;100298.75;5043421;28;20451;-77
2021/06/16 00:55:56;;;;;;;11.10;3.38;;;;;;;17.96;64.27;100296.72;5037497;28;20107;-79
2021/06/16 00:58:24;;;;;;;7.68;2.40;;;;;;;17.90;63.99;100294.56;5035397;28;20435;-78
2021/06/16 01:01:03;;;;;;;6.78;2.47;;;;;;;17.91;63.57;100296.28;5034904;28;20126;-78
2021/06/16 01:03:42;;;;;;;6.35;2.25;;;;;;;17.83;63.92;100274.53;5035321;28;20435;-78
2021/06/16 01:06:38;;;;;;;9.35;2.50;;;;;;;17.82;64.12;100289.00;5035278;28;20049;-78
2021/06/16 01:09:54;;;;;;;10.07;2.75;;;;;;;17.89;63.39;100288.34;5035271;28;20116;-78
2021/06/16 01:12:26;;;;;;;11.65;2.63;;;;;;;17.89;62.67;100285.63;5032561;28;20060;-77
2021/06/16 01:15:00;;;;;;;10.88;3.22;;;;;;;17.98;62.53;100286.63;5034222;28;20128;-76
2021/06/16 01:17:35;;;;;;;8.48;3.13;;;;;;;18.04;62.16;100283.38;5034990;28;20046;-77
2021/06/16 01:20:08;;;;;;;8.90;3.22;;;;;;;18.04;62.75;100286.06;5024487;28;20046;-78
2021/06/16 01:22:50;;;;;;;7.38;3.20;;;;;;;17.99;62.81;100268.59;5014368;28;20050;-79
2021/06/16 01:25:24;;;;;;;15.32;3.85;;;;;;;18.04;63.23;100288.78;5015269;28;20053;-77
2021/06/16 01:27:52;;;;;;;12.77;4.18;;;;;;;18.00;62.78;100263.06;5015411;28;20116;-79
2021/06/16 01:30:19;;;;;;;14.38;4.93;;;;;;;18.15;62.66;100279.72;5030228;28;20080;-80
2021/06/16 01:32:47;;;;;;;13.48;4.78;;;;;;;18.09;62.73;100264.06;5015173;28;20092;-78
2021/06/16 01:35:14;;;;;;;14.30;4.13;;;;;;;18.19;62.54;100278.44;5014931;28;20453;-78
2021/06/16 01:37:41;;;;;;;10.90;4.32;;;;;;;18.22;62.51;100271.06;5015202;28;20050;-78
2021/06/16 01:40:11;;;;;;;11.57;3.95;;;;;;;18.18;62.54;100279.44;5015194;28;20053;-77
2021/06/16 01:42:39;;;;;;;;;;;;;;;18.25;62.04;100277.03;5015342;28;20096;-79
2021/06/16 01:45:06;;;;;;;10.25;3.63;;;;;;;18.17;61.33;100247.16;5014998;28;19972;-80
2021/06/16 01:47:34;;;;;;;12.75;3.50;;;;;;;18.29;61.78;100273.06;5015060;28;20060;-79
2021/06/16 01:50:03;;;;;;;7.03;2.85;;;;;;;18.21;62.09;100262.13;5014921;28;20049;-80
2021/06/16 01:52:32;;;;;;;8.98;2.83;;;;;;;18.22;61.43;100263.81;5032407;28;20056;-79
2021/06/16 01:54:59;;;;;;;11.35;2.65;;;;;;;18.22;61.57;100266.50;5018322;28;20058;-79
2021/06/16 01:57:26;;;;;;;13.52;2.38;;;;;;;18.31;60.72;100262.13;5018594;28;20058;-77
2021/06/16 01:59:56;;;;;;;11.13;2.20;;;;;;;18.29;60.36;100246.03;5018702;28;20058;-78
2021/06/16 02:02:22;;;;;;;10.60;2.50;;;;;;;18.32;60.59;100253.84;5018468;28;20050;-79
2021/06/16 02:04:49;;;;;;;7.80;1.90;;;;;;;18.28;60.46;100255.16;5017049;28;20054;-78
2021/06/16 02:07:25;;;;;;;11.70;2.38;;;;;;;18.29;60.67;100246.03;5018109;28;20074;-79
2021/06/16 02:09:53;;;;;;;8.13;2.00;;;;;;;18.15;60.20;100219.47;5018239;28;20144;-78
2021/06/16 02:12:21;;;;;;;15.48;2.80;;;;;;;18.21;60.98;100247.75;5018278;28;20145;-79
2021/06/16 02:14:57;;;;;;;11.98;2.30;;;;;;;18.18;60.91;100246.16;5018022;28;20489;-78
2021/06/16 02:17:28;;;;;;;8.52;2.15;;;;;;;18.11;60.81;100242.34;5018063;28;20221;-80
2021/06/16 02:19:56;;;;;;;11.25;2.47;;;;;;;18.28;60.43;100247.03;5027474;28;20549;-79
2021/06/16 02:22:27;;;;;;;8.43;2.17;;;;;;;18.11;60.63;100226.13;5036653;28;20053;-80
2021/06/16 02:24:56;;;;;;;5.38;1.90;;;;;;;18.19;60.30;100231.66;5037767;28;20050;-78
2021/06/16 02:27:23;;;;;;;12.82;2.30;;;;;;;18.36;60.18;100240.06;5037387;28;20115;-77
2021/06/16 02:29:50;;;;;;;7.28;2.25;;;;;;;18.30;60.41;100246.91;5037999;28;20385;-78
2021/06/16 02:32:18;;;;;;;11.85;2.63;;;;;;;18.10;60.63;100217.19;5037775;28;20099;-80
2021/06/16 02:34:45;;;;;;;7.38;2.33;;;;;;;18.15;61.44;100232.97;5037479;28;20068;-79
2021/06/16 02:37:16;;;;;;;10.85;2.17;;;;;;;18.14;61.44;100224.00;5037496;28;20481;-79
2021/06/16 02:39:49;;;;;;;7.65;2.47;;;;;;;18.13;61.09;100227.69;5037501;28;20493;-78
2021/06/16 02:42:17;;;;;;;11.43;2.13;;;;;;;18.08;61.08;100215.63;5037343;28;20042;-78
2021/06/16 02:44:44;;;;;;;8.23;2.55;;;;;;;18.21;61.27;100212.63;5036076;28;20065;-79
2021/06/16 02:47:13;;;;;;;9.95;2.22;;;;;;;18.16;61.39;100218.47;5037153;28;20067;-79
2021/06/16 02:49:52;;;;;;;7.88;1.80;;;;;;;18.27;61.10;100210.22;5037539;28;20107;-80
2021/06/16 02:52:20;;;;;;;8.80;2.67;;;;;;;18.29;60.96;100202.81;5037126;28;20419;-78
2021/06/16 02:54:53;;;;;;;10.77;2.95;;;;;;;18.30;61.20;100201.81;5037225;28;20053;-79
2021/06/16 02:57:22;;;;;;;6.78;2.40;;;;;;;18.27;61.20;100199.41;5036032;28;20053;-79
2021/06/16 02:59:51;;;;;;;10.02;2.60;;;;;;;18.28;61.39;100200.25;5037320;28;20053;-78
2021/06/16 03:02:21;;;;;;;10.00;2.53;;;;;;;18.09;61.59;100174.94;5036687;28;20056;-78
2021/06/16 03:04:49;;;;;;;8.60;2.85;;;;;;;18.19;61.99;100196.56;5036551;28;20053;-78
2021/06/16 03:07:18;;;;;;;11.23;3.13;;;;;;;18.07;61.72;100181.50;5037087;28;20138;-78
2021/06/16 03:09:46;;;;;;;9.60;2.60;;;;;;;18.09;61.67;100187.63;5036853;28;20103;-78
2021/06/16 03:12:15;;;;;;;10.57;3.00;;;;;;;18.08;62.15;100196.72;5036548;28;20053;-78
2021/06/16 03:14:43;;;;;;;8.90;2.92;;;;;;;18.13;62.17;100195.28;5036906;28;20161;-78
2021/06/16 03:17:12;;;;;;;14.85;2.53;;;;;;;18.00;61.76;100182.03;5036582;28;20057;-79
2021/06/16 03:19:39;;;;;;;13.90;2.70;;;;;;;18.16;61.96;100195.00;5029439;28;20108;-78
2021/06/16 03:22:07;;;;;;;9.15;2.70;;;;;;;18.11;62.09;100199.13;5016585;28;20049;-78
2021/06/16 03:24:36;;;;;;;11.85;2.72;;;;;;;18.05;62.11;100178.94;5017032;28;20057;-78
2021/06/16 03:27:04;;;;;;;10.90;2.60;;;;;;;18.12;62.24;100193.59;5016800;28;20046;-78
2021/06/16 03:29:33;;;;;;;7.90;2.67;;;;;;;18.05;63.07;100192.44;5016839;28;20128;-78
2021/06/16 03:32:06;;;;;;;9.50;2.75;;;;;;;18.12;63.12;100190.00;5016502;28;20042;-78
2021/06/16 03:34:33;;;;;;;12.35;3.30;;;;;;;18.08;62.47;100188.63;5016938;28;20104;-78
2021/06/16 03:37:02;;;;;;;13.52;3.15;;;;;;;18.01;63.31;100189.16;5016421;28;20454;-78
2021/06/16 03:39:30;;;;;;;11.95;2.63;;;;;;;18.06;62.94;100186.03;5016393;28;20057;-78
2021/06/16 03:41:56;;;;;;;10.18;2.92;;;;;;;18.04;62.14;100171.81;5016344;28;20046;-78
2021/06/16 03:44:25;;;;;;;10.02;2.58;;;;;;;18.09;62.39;100179.50;5031279;28;20088;-78
2021/06/16 03:46:53;;;;;;;18.50;3.05;;;;;;;18.01;63.11;100170.25;5031335;28;20103;-78
2021/06/16 03:49:20;;;;;;;8.00;2.83;;;;;;;18.11;62.31;100172.97;5034843;28;20439;-79
2021/06/16 03:51:48;;;;;;;15.30;3.47;;;;;;;18.14;62.19;100177.25;5021339;28;20092;-78
2021/06/16 03:54:15;;;;;;;8.23;3.20;;;;;;;18.01;62.32;100156.75;5016098;28;20502;-79
2021/06/16 03:56:43;;;;;;;11.45;2.83;;;;;;;18.02;62.67;100158.44;5019171;28;20057;-79
2021/06/16 03:59:11;;;;;;;7.35;2.60;;;;;;;18.16;62.52;100173.41;5016537;28;20328;-78
2021/06/16 04:01:39;;;;;;;13.13;2.78;;;;;;;18.12;62.76;100176.50;5029485;28;20057;-78
2021/06/16 04:04:10;;;;;;;10.93;2.83;;;;;;;17.97;62.74;100158.00;5035683;28;20355;-78
2021/06/16 04:06:45;;;;;;;11.15;2.78;;;;;;;18.11;62.65;100167.56;5035839;28;20057;-78
2021/06/16 04:09:14;;;;;;;11.00;3.22;;;;;;;18.24;61.71;100172.66;5036093;28;20473;-78
2021/06/16 04:11:42;;;;;;;11.55;3.03;;;;;;;18.24;62.92;100161.03;5035820;28;20057;-78
2021/06/16 04:14:09;;;;;;;9.43;2.40;;;;;;;18.18;62.98;100157.03;5032190;28;20049;-78
2021/06/16 04:16:41;;;;;;;14.82;2.75;;;;;;;18.25;63.34;100151.94;5019974;28;20526;-78
2021/06/16 04:19:08;;;;;;;9.30;2.33;;;;;;;18.25;63.14;100154.63;5018917;28;20079;-78
2021/06/16 04:21:35;;;;;;;7.78;2.35;;;;;;;18.21;63.14;100135.16;5034411;28;20045;-78
2021/06/16 04:24:01;;;;;;;10.40;3.08;;;;;;;18.24;63.38;100142.13;5035402;28;20057;-78
2021/06/16 04:26:28;;;;;;;7.53;2.60;;;;;;;18.20;62.79;100133.44;5035324;28;20053;-77
2021/06/16 04:29:03;;;;;;;11.13;3.08;;;;;;;18.28;62.76;100149.78;5035375;28;20053;-78
2021/06/16 04:31:30;;;;;;;7.65;2.78;;;;;;;18.16;63.35;100126.63;5035635;28;20120;-78
2021/06/16 04:33:59;;;;;;;11.65;3.05;;;;;;;18.27;63.36;100144.53;5035620;28;20128;-78
2021/06/16 04:36:25;;;;;;;9.50;3.72;;;;;;;18.26;63.43;100149.06;5035768;28;20049;-78
2021/06/16 04:38:52;;;;;;;10.32;2.92;;;;;;;18.29;63.22;100142.50;5035325;28;20104;-78
2021/06/16 04:41:18;;;;;;;10.77;3.42;;;;;;;18.31;62.74;100143.25;5035328;28;20100;-78
2021/06/16 04:43:45;;;;;;;10.75;2.92;;;;;;;18.33;62.93;100141.25;5034737;28;20550;-77
2021/06/16 04:46:12;;;;;;;13.73;3.63;;;;;;;18.35;63.00;100136.53;5035463;28;20099;-77
2021/06/16 04:48:42;;;;;;;10.60;3.90;;;;;;;18.33;63.44;100127.72;5034393;28;20053;-77
2021/06/16 04:51:09;;;;;;;7.95;2.95;;;;;;;18.42;63.05;100126.84;5035184;28;20577;-78
2021/06/16 04:53:36;;;;;;;11.63;3.22;;;;;;;18.50;62.43;100127.97;5035270;28;20079;-79
2021/06/16 04:56:05;;;;;;;12.25;3.28;;;;;;;18.44;62.71;100124.88;5035182;28;20055;-78
2021/06/16 04:58:32;;;;;;;15.45;3.22;;;;;;;18.48;62.72;100122.72;5035518;28;20053;-79
2021/06/16 05:00:59;;;;;;;10.05;3.97;;;;;;;18.42;62.41;100093.59;5036538;28;20049;-79
2021/06/16 05:03:26;;;;;;;13.88;4.20;;;;;;;18.49;62.53;100107.34;5036308;28;20497;-78
2021/06/16 05:05:52;;;;;;;10.70;3.50;;;;;;;18.56;62.61;100112.03;5035422;28;20045;-78
2021/06/16 05:08:19;;;;;;;13.20;4.00;;;;;;;18.56;62.75;100106.63;5035413;28;20050;-76
2021/06/16 05:10:46;;;;;;;15.52;4.30;;;;;;;18.62;63.05;100107.03;5036056;28;20107;-76
2021/06/16 05:13:12;;;;;;;16.85;4.38;;;;;;;18.47;63.67;100099.41;5024643;28;20104;-77
2021/06/16 05:15:39;;;;;;;13.43;3.75;;;;;;;18.62;62.94;100115.97;5015644;28;20061;-77
2021/06/16 05:18:08;;;;;;;12.73;4.13;;;;;;;18.68;63.13;100112.69;5015539;28;20442;-78
2021/06/16 05:20:34;;;;;;;12.93;3.95;;;;;;;18.67;63.21;100111.00;5045624;28;20045;-77
2021/06/16 05:23:03;;;;;;;15.35;4.53;;;;;;;18.72;63.53;100105.13;5027482;28;20389;-77
2021/06/16 05:25:30;;;;;;;9.55;4.20;;;;;;;18.70;62.93;100090.94;5027457;28;20114;-76
2021/06/16 05:27:57;;;;;;;9.35;3.58;;;;;;;18.79;63.21;100108.13;5028475;28;20128;-77
2021/06/16 05:30:24;;;;;;;11.23;3.85;;;;;;;18.81;63.60;100104.25;5031164;28;20447;-75
2021/06/16 05:32:50;;;;;;;13.02;4.25;;;;;;;18.86;63.06;100104.63;5035782;28;20453;-74
2021/06/16 05:35:18;;;;;;;10.45;4.20;;;;;;;18.88;63.28;100104.50;5036350;28;20446;-74
2021/06/16 05:37:46;;;;;;;9.55;3.97;;;;;;;18.95;63.66;100096.66;5032876;28;20045;-76
2021/06/16 05:40:15;;;;;;;16.33;4.32;;;;;;;19.08;63.75;100096.31;5024038;28;20061;-74
2021/06/16 05:42:42;;;;;;;14.27;3.97;;;;;;;19.16;63.28;100084.75;5026392;28;20041;-73
2021/06/16 05:45:10;;;;;;;13.02;4.35;;;;;;;19.23;62.58;100100.22;5031724;28;20080;-76
2021/06/16 05:47:37;;;;;;;15.00;4.50;;;;;;;19.32;62.51;100100.28;5030085;28;20049;-75
2021/06/16 05:50:07;;;;;;;11.88;4.00;;;;;;;19.32;62.48;100098.44;5024836;28;20049;-76
2021/06/16 05:52:34;;;;;;;7.53;4.20;;;;;;;19.35;63.70;100095.44;5024073;28;20042;-75
2021/06/16 05:55:01;;;;;;;12.90;4.72;;;;;;;19.46;62.97;100096.22;5027907;28;20103;-75
2021/06/16 05:57:27;;;;;;;10.52;4.40;;;;;;;19.50;62.66;100093.06;5028838;28;20111;-76
2021/06/16 05:59:54;;;;;;;11.30;4.30;;;;;;;19.50;62.68;100086.81;5009581;28;20439;-76
2021/06/16 06:02:20;;;;;;;13.80;4.93;;;;;;;19.62;62.17;100088.25;5027711;28;20049;-74
2021/06/16 06:04:47;;;;;;;10.07;3.70;;;;;;;19.61;63.21;100088.44;5031555;28;20104;-74
2021/06/16 06:07:15;;;;;;;13.80;4.20;;;;;;;19.73;62.51;100083.63;5037999;28;20049;-78
2021/06/16 06:09:42;;;;;;;14.73;4.97;;;;;;;19.69;63.00;100083.09;5038248;28;20077;-75
2021/06/16 06:12:08;;;;;;;11.65;4.22;;;;;;;19.75;63.31;100087.00;5038324;28;20096;-75
2021/06/16 06:14:35;;;;;;;10.68;4.45;;;;;;;19.80;63.96;100090.97;5035633;28;20541;-76
2021/06/16 06:17:02;;;;;;;12.02;4.63;;;;;;;19.80;63.23;100065.75;5036427;28;20065;-76
2021/06/16 06:19:28;;;;;;;12.68;4.25;;;;;;;19.96;62.38;100081.31;5027032;28;20050;-75
2021/06/16 06:21:55;;;;;;;11.70;4.75;;;;;;;20.03;62.99;100085.09;4998315;28;20054;-75
2021/06/16 06:24:22;;;;;;;8.00;4.10;;;;;;;19.99;62.89;100070.16;4998372;28;20097;-76
2021/06/16 06:26:49;;;;;;;10.32;4.55;;;;;;;20.12;62.32;100094.13;4998263;28;20375;-75
2021/06/16 06:29:15;;;;;;;10.90;4.25;;;;;;;20.23;62.29;100082.19;4998378;28;20112;-75
2021/06/16 06:31:42;;;;;;;15.65;4.65;;;;;;;20.28;62.74;100081.69;4998193;28;20050;-75
2021/06/16 06:34:09;;;;;;;9.48;3.88;;;;;;;20.31;63.39;100073.25;4997892;28;20137;-76
2021/06/16 06:36:35;;;;;;;10.75;4.70;;;;;;;20.34;63.08;100072.94;4998144;28;20054;-75
2021/06/16 06:39:03;;;;;;;8.73;4.20;;;;;;;20.37;62.52;100069.88;4998143;28;20070;-75
2021/06/16 06:41:30;;;;;;;10.50;4.30;;;;;;;20.43;63.06;100073.84;4997244;28;20379;-73
2021/06/16 06:43:57;;;;;;;9.57;4.40;;;;;;;20.59;61.97;100062.25;4997085;28;20096;-74
2021/06/16 06:46:24;;;;;;;13.52;4.43;;;;;;;20.73;61.64;100072.47;4997264;28;20437;-75
2021/06/16 06:48:50;;;;;;;12.80;4.80;;;;;;;20.80;61.58;100066.41;4997166;28;20452;-75
2021/06/16 06:51:17;;;;;;;12.60;4.55;;;;;;;20.82;62.27;100065.22;4997466;28;20109;-73
2021/06/16 06:53:44;;;;;;;9.70;4.57;;;;;;;20.87;62.14;100059.34;4997844;28;20050;-75
2021/06/16 06:56:10;;;;;;;14.18;5.00;;;;;;;20.88;62.20;100048.31;4996600;28;20113;-77
2021/06/16 06:58:37;;;;;;;13.15;4.55;;;;;;;21.00;62.77;100043.44;5004237;28;20058;-75
2021/06/16 07:01:04;;;;;;;12.90;4.75;;;;;;;21.03;62.67;100045.81;5013706;28;20104;-75
2021/06/16 07:03:33;;;;;;;13.90;4.78;;;;;;;21.08;62.04;100044.47;5017068;28;20084;-75
2021/06/16 07:06:00;;;;;;;14.90;4.45;;;;;;;21.13;61.82;100034.00;5015958;28;20062;-75
2021/06/16 07:08:27;;;;;;;12.35;5.00;;;;;;;21.14;62.50;100041.09;5016527;28;20096;-77
2021/06/16 07:10:53;;;;;;;13.25;5.22;;;;;;;21.35;60.94;100037.91;5016350;28;20058;-75
2021/06/16 07:13:20;;;;;;;12.77;4.75;;;;;;;21.46;61.65;100039.44;5015330;28;20041;-76
2021/06/16 07:16:04;;;;;;;12.07;4.75;;;;;;;21.53;60.48;100034.19;5016907;28;20499;-75
2021/06/16 07:18:31;;;;;;;11.75;4.45;;;;;;;21.64;60.83;100041.16;5015854;28;20049;-76
2021/06/16 07:20:58;;;;;;;12.93;5.05;;;;;;;21.62;61.17;100021.47;5025521;28;20054;-76
2021/06/16 07:23:25;;;;;;;11.93;4.53;;;;;;;21.60;61.36;100008.06;5016354;28;20498;-76
2021/06/16 07:25:51;;;;;;;11.15;4.32;;;;;;;21.69;61.80;100031.50;5015357;28;20049;-76
2021/06/16 07:28:18;;;;;;;13.60;5.25;;;;;;;21.75;60.51;100016.41;5016644;28;20399;-75
2021/06/16 07:30:45;;;;;;;16.33;5.38;;;;;;;21.79;61.59;100034.06;5016021;28;20061;-75
2021/06/16 07:33:11;;;;;;;10.50;5.00;;;;;;;21.76;61.67;100012.69;5016688;28;20325;-76
2021/06/16 07:35:39;;;;;;;12.57;5.07;;;;;;;21.87;61.85;100035.94;5016718;28;20073;-76
2021/06/16 07:38:07;;;;;;;13.10;5.35;;;;;;;21.91;61.32;100025.56;5016583;28;20440;-75
2021/06/16 07:40:33;;;;;;;10.52;4.90;;;;;;;22.10;60.57;100021.63;5016686;28;20442;-76
2021/06/16 07:43:00;;;;;;;13.15;5.50;;;;;;;22.13;60.86;100024.00;5015232;28;20056;-77
2021/06/16 07:45:27;;;;;;;14.15;5.28;;;;;;;22.13;61.36;100032.16;5015061;28;20416;-75
2021/06/16 07:47:54;;;;;;;11.30;4.63;;;;;;;22.23;60.54;100024.66;5016617;28;20046;-76
2021/06/16 07:50:20;;;;;;;13.20;5.05;;;;;;;22.24;60.73;100006.47;5014836;28;20049;-75
2021/06/16 07:52:47;;;;;;;16.58;6.05;;;;;;;22.33;61.27;100013.56;5016771;28;20050;-76
2021/06/16 07:55:15;;;;;;;18.30;6.45;;;;;;;22.34;61.78;100001.69;5016213;28;20058;-75
2021/06/16 07:57:42;;;;;;;13.23;6.53;;;;;;;22.51;60.74;100012.53;5016216;28;20054;-78
2021/06/16 08:00:09;;;;;;;15.65;6.65;;;;;;;22.53;60.95;100007.78;5016653;28;20050;-76
2021/06/16 08:02:38;;;;;;;21.95;5.90;;;;;;;22.66;60.68;100015.34;5016198;28;20053;-75
2021/06/16 08:05:06;;;;;;;15.93;6.22;;;;;;;22.65;60.87;100014.53;5016261;28;20052;-74
2021/06/16 08:07:33;;;;;;;17.52;6.22;;;;;;;22.70;61.56;100013.97;5015881;28;20049;-75
2021/06/16 08:10:00;;;;;;;15.80;5.97;;;;;;;22.73;61.08;100018.22;5014749;28;20064;-75
2021/06/16 08:12:27;;;;;;;15.63;5.97;;;;;;;22.86;60.23;100004.91;5015061;28;20428;-75
2021/06/16 08:14:53;;;;;;;23.90;6.85;;;;;;;23.05;59.52;100016.38;5015352;28;20100;-75
2021/06/16 08:17:20;;;;;;;18.45;5.72;;;;;;;23.05;60.41;100011.75;5014980;28;20111;-75
2021/06/16 08:19:47;;;;;;;16.38;5.55;;;;;;;23.05;60.90;100005.47;5019594;28;20662;-77
2021/06/16 08:22:14;;;;;;;10.23;4.97;;;;;;;23.27;59.83;100001.06;5015454;28;20050;-78
2021/06/16 08:24:41;;;;;;;15.18;5.97;;;;;;;23.28;58.06;99991.03;5014660;28;20356;-77
2021/06/16 08:27:09;;;;;;;11.60;5.18;;;;;;;23.42;58.86;100003.88;4998357;28;20057;-75
2021/06/16 08:29:38;;;;;;;11.15;5.70;;;;;;;23.45;59.07;100000.81;5015995;28;20084;-75
2021/06/16 08:32:05;;;;;;;12.52;6.38;;;;;;;23.52;59.20;99995.47;5015494;28;20054;-77
2021/06/16 08:34:32;;;;;;;16.17;6.63;;;;;;;23.57;57.56;99989.44;5015783;28;20348;-77
2021/06/16 08:36:59;;;;;;;15.73;5.35;;;;;;;23.76;57.23;100006.31;5015751;28;20053;-76
2021/06/16 08:39:25;;;;;;;14.43;5.82;;;;;;;23.82;57.09;100008.31;5015841;28;20050;-75
2021/06/16 08:41:52;;;;;;;14.43;5.93;;;;;;;23.76;56.93;99998.16;5015535;28;20053;-78
2021/06/16 08:44:20;;;;;;;13.23;6.30;;;;;;;23.70;56.68;99983.41;5015364;28;20058;-75
2021/06/16 08:46:47;;;;;;;19.45;6.30;;;;;;;23.71;57.41;99990.53;5015337;28;20112;-76
2021/06/16 08:49:14;;;;;;;12.68;6.70;;;;;;;23.73;56.93;99997.50;5019787;28;20339;-75
2021/06/16 08:51:41;;;;;;;10.48;6.10;;;;;;;23.70;57.70;99989.69;5019927;28;20076;-78
2021/06/16 08:54:09;;;;;;;9.05;6.00;;;;;;;23.85;57.73;99995.16;5014229;28;20100;-75
2021/06/16 08:56:36;;;;;;;12.65;6.18;;;;;;;23.79;58.14;99992.34;5014138;28;20112;-76
2021/06/16 08:59:03;;;;;;;11.15;5.72;;;;;;;23.84;57.14;99987.16;5015469;28;20057;-76
2021/06/16 09:01:30;;;;;;;12.50;6.25;;;;;;;23.86;56.80;99998.75;5016423;28;20124;-75
2021/06/16 09:03:57;;;;;;;8.70;5.55;;;;;;;23.88;56.84;99999.41;5023978;28;20041;-76
2021/06/16 09:06:29;;;;;;;10.38;5.68;;;;;;;23.86;57.89;99993.31;5028820;28;20054;-75
2021/06/16 09:09:02;;;;;;;9.93;6.55;;;;;;;23.99;56.54;99996.22;5013728;28;20096;-76
2021/06/16 09:11:46;;;;;;;11.48;6.38;;;;;;;23.97;56.76;99971.03;5019084;28;20050;-75
2021/06/16 09:14:18;;;;;;;11.68;5.93;;;;;;;24.23;55.86;99985.25;5025759;28;20387;-75
2021/06/16 09:16:46;;;;;;;13.75;6.60;;;;;;;24.08;55.71;99947.94;5023081;28;20050;-76
2021/06/16 09:19:32;;;;;;;7.45;5.20;;;;;;;24.42;56.13;99984.69;5021977;28;20390;-78
2021/06/16 09:22:04;;;;;;;14.75;6.85;;;;;;;24.74;56.01;99975.44;5019329;28;20082;-75
2021/06/16 09:24:54;;;;;;;9.98;5.78;;;;;;;24.81;55.12;99974.50;5020212;28;20057;-77
2021/06/16 09:27:37;;;;;;;17.85;6.50;;;;;;;24.98;55.83;99982.44;5019413;28;20075;-75
2021/06/16 09:30:24;;;;;;;7.35;5.78;;;;;;;25.06;55.72;99976.03;5019816;28;20387;-77
2021/06/16 09:32:53;;;;;;;11.43;7.15;;;;;;;25.18;52.39;99966.28;5025668;28;20450;-77
2021/06/16 09:35:22;;;;;;;13.95;6.50;;;;;;;25.20;52.64;99972.38;5030241;28;20377;-76
2021/06/16 09:37:50;;;;;;;10.38;5.72;;;;;;;25.27;54.22;99979.81;5042723;28;20100;-76
2021/06/16 09:40:25;;;;;;;14.50;6.65;;;;;;;25.30;52.87;99980.25;5030194;28;20053;-77
2021/06/16 09:43:00;;;;;;;10.05;6.80;;;;;;;25.22;52.68;99977.66;5017109;28;20054;-76
2021/06/16 09:45:28;;;;;;;13.15;5.88;;;;;;;25.35;53.49;99972.34;5018123;28;20054;-76
2021/06/16 09:47:55;;;;;;;10.75;5.57;;;;;;;25.52;53.16;99963.88;5016854;28;20462;-75
2021/06/16 09:50:24;;;;;;;12.10;5.75;;;;;;;25.86;52.71;99966.84;5017273;28;20451;-76
2021/06/16 09:52:51;;;;;;;13.80;5.68;;;;;;;26.02;52.25;99960.22;5021319;28;20057;-76
2021/06/16 09:55:20;;;;;;;9.30;5.45;;;;;;;26.12;52.01;99962.59;5015578;28;20104;-76
2021/06/16 09:57:57;;;;;;;9.00;5.43;;;;;;;26.28;50.32;99962.31;5018308;28;20054;-76
2021/06/16 10:00:31;;;;;;;10.60;6.05;;;;;;;26.28;50.34;99958.75;5018580;28;20050;-76
2021/06/16 10:03:08;;;;;;;12.27;6.18;;;;;;;26.25;50.07;99949.03;5018266;28;20140;-76
2021/06/16 10:05:35;;;;;;;15.90;5.95;;;;;;;26.46;51.40;99952.72;5018680;28;20046;-76
2021/06/16 10:08:02;;;;;;;11.73;6.00;;;;;;;26.58;49.94;99948.34;5018125;28;20502;-76
2021/06/16 10:10:29;;;;;;;13.75;5.85;;;;;;;26.67;49.77;99946.28;5017576;28;20367;-76
2021/06/16 10:12:56;;;;;;;12.68;5.90;;;;;;;26.83;50.67;99955.16;5017036;28;20046;-77
2021/06/16 10:15:23;;;;;;;12.90;6.40;;;;;;;26.77;49.13;99950.50;5017694;28;20116;-77
2021/06/16 10:17:50;;;;;;;11.52;6.45;;;;;;;26.90;48.94;99944.25;5024136;28;20042;-77
2021/06/16 10:20:17;;;;;;;9.15;5.15;;;;;;;26.93;49.82;99952.06;5020992;28;20082;-77
2021/06/16 10:22:44;;;;;;;9.52;5.43;;;;;;;27.07;49.54;99944.72;5016807;28;20439;-76
2021/06/16 10:25:11;;;;;;;15.73;5.18;;;;;;;27.19;49.44;99953.16;5023782;28;20041;-75
2021/06/16 10:27:54;;;;;;;13.85;5.55;;;;;;;27.28;48.56;99949.16;5027345;28;20128;-76
2021/06/16 10:30:23;;;;;;;10.73;6.40;;;;;;;27.25;48.72;99953.16;5026046;28;20057;-76
2021/06/16 10:32:50;;;;;;;13.50;5.80;;;;;;;27.38;48.94;99946.84;5043736;28;20401;-75
2021/06/16 10:35:26;;;;;;;15.63;6.95;;;;;;;27.36;49.87;99953.59;5029577;28;20045;-75
2021/06/16 10:38:18;;;;;;;10.73;4.93;;;;;;;27.57;49.28;99951.72;5027173;28;20053;-78
2021/06/16 10:40:52;;;;;;;10.68;5.32;;;;;;;27.80;47.92;99954.03;5027053;28;20446;-76
2021/06/16 10:43:39;;;;;;;8.90;5.53;;;;;;;28.08;48.76;99949.31;5024962;28;20049;-78
2021/06/16 10:46:11;;;;;;;9.80;5.70;;;;;;;28.28;47.97;99932.84;5028982;28;20058;-76
2021/06/16 10:48:58;;;;;;;15.85;5.38;;;;;;;28.46;48.46;99946.72;5027425;28;20050;-74
2021/06/16 10:51:31;;;;;;;8.82;5.13;;;;;;;28.63;46.69;99935.22;5027360;28;20060;-78
2021/06/16 10:54:18;;;;;;;11.10;5.63;;;;;;;28.65;47.28;99938.59;5025383;28;20049;-75
2021/06/16 10:56:46;;;;;;;8.00;5.60;;;;;;;28.56;46.61;99934.41;5019774;28;20424;-76
2021/06/16 10:59:14;;;;;;;5.82;4.97;;;;;;;28.23;47.28;99936.25;5025632;28;20054;-77
2021/06/16 11:01:49;;;;;;;12.52;5.68;;;;;;;28.05;48.03;99932.25;5026161;28;20053;-76
2021/06/16 11:04:45;;;;;;;10.20;5.28;;;;;;;28.25;47.11;99936.00;5025121;28;20054;-78
2021/06/16 11:07:30;;;;;;;9.30;5.43;;;;;;;28.26;47.12;99924.81;5023590;28;20042;-79
2021/06/16 11:09:57;;;;;;;14.13;5.38;;;;;;;28.54;47.42;99925.56;5022599;28;20107;-78
2021/06/16 11:12:30;;;;;;;10.13;5.25;;;;;;;28.30;46.92;99908.75;5022319;28;20384;-78
2021/06/16 11:14:59;;;;;;;9.70;5.10;;;;;;;28.53;46.75;99915.66;5028690;28;20431;-75
2021/06/16 11:17:26;;;;;;;9.45;5.38;;;;;;;28.83;45.66;99910.41;5031833;28;20099;-80
2021/06/16 11:20:00;;;;;;;8.23;4.80;;;;;;;29.04;46.46;99916.66;5018960;28;20046;-79
2021/06/16 11:22:28;;;;;;;8.80;4.53;;;;;;;29.08;45.30;99920.59;5016473;28;20112;-78
2021/06/16 11:25:13;;;;;;;5.45;4.57;;;;;;;29.47;46.26;99915.03;5015709;28;20050;-79
2021/06/16 11:27:53;;;;;;;9.65;5.05;;;;;;;29.78;44.44;99904.16;5003074;28;20133;-78
2021/06/16 11:30:48;;;;;;;9.05;4.97;;;;;;;29.91;43.96;99901.28;5017328;28;20053;-79
2021/06/16 11:33:15;;;;;;;8.38;4.95;;;;;;;29.70;43.39;99898.97;5017404;28;20375;-77